• Join FlightAware (Why Join?)
  • Login
  • US Flag 
12:24AM EDT


 

Airport Tracker/Info


-or-


 

Live Flight TrackerFlight Track Log ✈ BJS339 ✈ 25-Dec-2013 ✈ MMSD / SJD - KNYL

Flight Track Log - Related Links

Times and Time Zones

All times are in EST time to prevent confusion due to time zone crossing. See the BJS339 flight status page for this flight to view local times or setup timezone preferences in your user account.

Time Position Orientation Groundspeed Altitude Reporting Facility
EST Latitude Longitude Course Direction KTS MPH feet Rate Location/Type
05:59PM 28.0323 -112.1105 96° East  Level Estimated
06:00PM 27.9972 -111.9837 107° East  Level FlightAware Approximate
06:01PM 27.9621 -111.8570 107° East  Level FlightAware Approximate
06:02PM 27.9268 -111.7304 107° East  Level FlightAware Approximate
06:03PM 27.8914 -111.6038 108° East  Level FlightAware Approximate
06:04PM 27.8559 -111.4774 108° East  Level FlightAware Approximate
06:05PM 27.8203 -111.3510 108° East  Level FlightAware Approximate
06:06PM 27.7845 -111.2247 108° East  Level FlightAware Approximate
06:07PM 27.7487 -111.0985 108° East  Level FlightAware Approximate
06:08PM 27.7127 -110.9724 108° East  Level FlightAware Approximate
06:09PM 27.6767 -110.8464 108° East  Level FlightAware Approximate
06:09PM 32.3114 -115.0469 108° East 404 465 17,500  Level Los Angeles Center
06:10PM 27.6405 -110.7204 108° East  Level FlightAware Approximate
06:10PM 32.4047 -115.1008 334° Northwest 393 452 15,700  Level Los Angeles Center
06:11PM 27.6042 -110.5945 108° East  Level FlightAware Approximate
06:11PM 32.4989 -115.1578 333° Northwest 380 437 14,700  Level Los Angeles Center
06:12PM 27.5677 -110.4687 108° East  Level FlightAware Approximate
06:12PM 32.6022 -115.1400 North 399 459 13,900  Level Los Angeles Center
06:13PM 27.5312 -110.3430 108° East  Level FlightAware Approximate
06:13PM 32.6436 -115.0236 67° East 393 452 13,900  Level Los Angeles Center
06:14PM 27.4946 -110.2174 108° East  Level FlightAware Approximate
06:14PM 32.6731 -114.9022 74° East 388 447 13,900  Level Los Angeles Center
06:15PM 27.4578 -110.0919 108° East  Level FlightAware Approximate
06:16PM 32.7189 -114.7611 69° East 350 403 11,900  Level Los Angeles Center
06:17PM 32.7356 -114.6578 79° East 281 323 9,000 -2,700 Descending Los Angeles Center
06:18PM 32.6900 -114.5978 132° Southeast 284 327 6,700 -2,640 Descending Los Angeles Center
06:18PM 32.6861 -114.5900 121° Southeast 263 303 6,400 -2,460 Descending Los Angeles Center
06:19PM 32.6847 -114.5272 91° East 227 261 4,000 -1,860 Descending Los Angeles Center
06:20PM 32.6933 -114.5797 281° West 232 267 2,800 -1,020 Descending Los Angeles Center
06:21PM 32.6561 -114.6286 228° Southwest 204 235 2,000 -1,080 Descending Los Angeles Center
06:22PM 32.6258 -114.6442 203° Southwest 198 228 700 -960 Descending Los Angeles Center
06:23PM 32.6483 -114.6150 48° Northeast 142 163 100 -600 Descending Los Angeles Center